Time;durP1;ratioP1;P1;durP2;ratioP2;P2;SDS_P1;SDS_P2;PMS_P1;PMS_P2;Temp;Humidity;BMP_temperature;BMP_pressure;BME280_temperature;BME280_humidity;BME280_pressure;Samples;Min_cycle;Max_cycle;Signal;HPM_P1;HPM_P2
2021/12/06 00:00:45;;;;;;;40.87;19.67;;;3.90;99.90;;;;;;5052894;28;20311;-54
2021/12/06 00:03:19;;;;;;;57.50;24.60;;;3.90;99.90;;;;;;5052905;28;20214;-54
2021/12/06 00:05:47;;;;;;;59.53;26.10;;;3.80;99.90;;;;;;5053060;28;20221;-55
2021/12/06 00:08:17;;;;;;;23.50;10.87;;;3.80;99.90;;;;;;5052890;28;20266;-55
2021/12/06 00:10:50;;;;;;;23.00;11.70;;;3.80;99.90;;;;;;5052849;28;20681;-54
2021/12/06 00:13:20;;;;;;;11.87;6.50;;;3.70;99.90;;;;;;5052542;28;20292;-54
2021/12/06 00:15:50;;;;;;;5.77;4.50;;;3.70;99.90;;;;;;5052812;28;20261;-54
2021/12/06 00:18:18;;;;;;;5.63;4.93;;;3.60;99.90;;;;;;5052509;28;20721;-54
2021/12/06 00:20:47;;;;;;;6.77;5.17;;;3.60;99.90;;;;;;5052456;28;20303;-56
2021/12/06 00:23:16;;;;;;;6.20;3.93;;;3.50;99.90;;;;;;5052594;28;20237;-56
2021/12/06 00:25:44;;;;;;;4.90;4.20;;;3.50;99.90;;;;;;5052290;28;20243;-55
2021/12/06 00:28:12;;;;;;;6.20;4.00;;;3.50;99.90;;;;;;5052197;28;20208;-54
2021/12/06 00:30:40;;;;;;;8.50;4.43;;;3.50;99.90;;;;;;5052644;28;20270;-54
2021/12/06 00:33:08;;;;;;;5.40;3.97;;;3.50;99.90;;;;;;5051950;28;20237;-54
2021/12/06 00:35:36;;;;;;;4.13;3.57;;;3.60;99.90;;;;;;5052164;28;20737;-54
2021/12/06 00:38:05;;;;;;;7.37;4.00;;;3.60;99.90;;;;;;5052112;28;20233;-57
2021/12/06 00:40:36;;;;;;;6.00;3.80;;;3.60;99.90;;;;;;5052300;28;20281;-55
2021/12/06 00:43:06;;;;;;;4.83;3.90;;;3.60;99.90;;;;;;5051800;28;20644;-56
2021/12/06 00:45:34;;;;;;;5.50;4.07;;;3.60;99.90;;;;;;5051766;28;20235;-54
2021/12/06 00:48:02;;;;;;;6.97;4.50;;;3.60;99.90;;;;;;5052337;28;20247;-55
2021/12/06 00:50:36;;;;;;;5.33;4.47;;;3.60;99.90;;;;;;5052178;28;20267;-55
2021/12/06 00:53:05;;;;;;;6.03;4.40;;;3.70;99.90;;;;;;5052828;28;20574;-55
2021/12/06 00:55:34;;;;;;;4.77;3.67;;;3.60;99.90;;;;;;5051728;28;20205;-55
2021/12/06 00:58:03;;;;;;;5.30;3.47;;;3.60;99.90;;;;;;5051744;28;20265;-54
2021/12/06 01:00:35;;;;;;;4.43;3.87;;;3.60;99.90;;;;;;5051407;28;20261;-54
2021/12/06 01:03:06;;;;;;;5.90;3.53;;;3.60;99.90;;;;;;5052083;28;20216;-55
2021/12/06 01:05:34;;;;;;;5.13;4.17;;;3.60;99.90;;;;;;5051703;28;20240;-55
2021/12/06 01:08:02;;;;;;;5.83;4.17;;;3.60;99.90;;;;;;5051975;28;20229;-54
2021/12/06 01:10:32;;;;;;;8.13;3.70;;;3.60;99.90;;;;;;5051239;28;20260;-55
2021/12/06 01:13:03;;;;;;;6.03;4.07;;;3.60;99.90;;;;;;5051547;28;20236;-55
2021/12/06 01:15:32;;;;;;;5.57;3.53;;;3.60;99.90;;;;;;5051655;28;20248;-55
2021/12/06 01:18:02;;;;;;;4.83;3.53;;;3.50;99.90;;;;;;5051437;28;20268;-55
2021/12/06 01:20:32;;;;;;;4.40;3.80;;;3.60;99.90;;;;;;5051500;28;20282;-54
2021/12/06 01:23:03;;;;;;;6.60;4.10;;;3.50;99.90;;;;;;5051311;28;20253;-56
2021/12/06 01:25:39;;;;;;;5.30;4.20;;;3.50;99.90;;;;;;5051549;28;20229;-55
2021/12/06 01:31:01;;;;;;;6.33;4.33;;;3.50;99.90;;;;;;5028608;28;20249;-55
2021/12/06 01:34:03;;;;;;;4.60;4.00;;;3.50;99.90;;;;;;5050820;28;20215;-54
2021/12/06 01:39:18;;;;;;;9.93;5.13;;;3.50;99.90;;;;;;5050728;28;20265;-55
2021/12/06 01:41:51;;;;;;;7.20;4.80;;;3.50;99.90;;;;;;5050997;28;20213;-54
2021/12/06 01:44:24;;;;;;;5.57;4.13;;;3.50;99.90;;;;;;5050930;28;20711;-55
2021/12/06 01:46:54;;;;;;;8.30;5.07;;;3.50;99.90;;;;;;5051346;28;20241;-54
2021/12/06 01:49:25;;;;;;;7.93;4.97;;;3.50;99.90;;;;;;5051114;28;20220;-54
2021/12/06 01:51:56;;;;;;;6.43;4.83;;;3.50;99.90;;;;;;5050720;28;20246;-54
2021/12/06 01:54:24;;;;;;;5.73;4.73;;;3.40;99.90;;;;;;5050982;28;20243;-54
2021/12/06 01:56:54;;;;;;;5.37;4.87;;;3.40;99.90;;;;;;5050777;28;20243;-54
2021/12/06 01:59:24;;;;;;;7.07;4.73;;;3.30;99.90;;;;;;5050776;28;20261;-55
2021/12/06 02:01:53;;;;;;;6.27;4.73;;;3.30;99.90;;;;;;5051148;28;20233;-54
2021/12/06 02:04:22;;;;;;;6.07;5.17;;;3.30;99.90;;;;;;5050946;28;20724;-54
2021/12/06 02:06:50;;;;;;;6.70;4.70;;;3.30;99.90;;;;;;5050621;28;20232;-54
2021/12/06 02:09:21;;;;;;;9.93;5.83;;;3.30;99.90;;;;;;5050934;28;20289;-54
2021/12/06 02:11:51;;;;;;;8.50;6.40;;;3.30;99.90;;;;;;5051005;28;20296;-54
2021/12/06 02:14:30;;;;;;;6.47;5.80;;;3.30;99.90;;;;;;5050716;28;20355;-54
2021/12/06 02:17:08;;;;;;;6.47;5.17;;;3.30;99.90;;;;;;5051304;28;20224;-54
2021/12/06 02:19:40;;;;;;;8.33;5.77;;;3.20;99.90;;;;;;5050669;28;20275;-55
2021/12/06 02:22:12;;;;;;;10.30;6.47;;;3.20;99.90;;;;;;5051622;28;20245;-55
2021/12/06 02:24:40;;;;;;;9.57;6.50;;;3.10;99.90;;;;;;5054736;28;20240;-55
2021/12/06 02:27:11;;;;;;;8.67;5.60;;;3.00;99.90;;;;;;5054595;28;20225;-55
2021/12/06 02:29:41;;;;;;;8.40;5.53;;;2.90;99.90;;;;;;5054686;28;20369;-54
2021/12/06 02:32:12;;;;;;;7.93;5.00;;;2.90;99.90;;;;;;5055012;28;20237;-54
2021/12/06 02:34:43;;;;;;;5.73;4.37;;;2.80;99.90;;;;;;5046900;28;20245;-54
2021/12/06 02:37:13;;;;;;;7.53;4.80;;;2.70;99.90;;;;;;5036148;28;20244;-55
2021/12/06 02:39:42;;;;;;;5.97;4.27;;;2.60;99.90;;;;;;5043087;28;20284;-56
2021/12/06 02:42:14;;;;;;;5.47;3.73;;;2.60;99.90;;;;;;5037753;28;20206;-54
2021/12/06 02:44:44;;;;;;;4.60;4.03;;;2.50;99.90;;;;;;5034963;28;20650;-55
2021/12/06 02:47:13;;;;;;;6.80;4.87;;;2.50;99.90;;;;;;5035005;28;20241;-53
2021/12/06 02:49:41;;;;;;;7.73;4.10;;;2.50;99.90;;;;;;5035219;28;20261;-55
2021/12/06 02:52:12;;;;;;;6.47;4.37;;;2.50;99.90;;;;;;5037504;28;20200;-55
2021/12/06 02:54:42;;;;;;;4.83;3.63;;;2.40;99.90;;;;;;5054505;28;20237;-53
2021/12/06 02:57:21;;;;;;;6.13;4.17;;;2.50;99.90;;;;;;5056151;28;20252;-53
2021/12/06 02:59:50;;;;;;;6.50;4.63;;;2.50;99.90;;;;;;5054273;28;20244;-54
2021/12/06 03:02:20;;;;;;;7.77;4.93;;;2.50;99.90;;;;;;5054661;28;20667;-54
2021/12/06 03:04:50;;;;;;;7.83;4.60;;;2.60;99.90;;;;;;5054749;28;20288;-54
2021/12/06 03:07:21;;;;;;;7.27;4.70;;;2.60;99.90;;;;;;5054054;28;20229;-55
2021/12/06 03:09:52;;;;;;;7.00;4.83;;;2.70;99.90;;;;;;5054417;28;20209;-54
2021/12/06 03:12:22;;;;;;;6.70;4.60;;;2.70;99.90;;;;;;5054146;28;20248;-54
2021/12/06 03:14:53;;;;;;;9.03;4.97;;;2.70;99.90;;;;;;5054307;28;20680;-54
2021/12/06 03:17:23;;;;;;;7.07;5.00;;;2.70;99.90;;;;;;5053883;28;20711;-55
2021/12/06 03:19:52;;;;;;;6.93;5.10;;;2.70;99.90;;;;;;5053808;28;20262;-55
2021/12/06 03:22:21;;;;;;;7.87;5.20;;;2.70;99.90;;;;;;5053507;28;20284;-55
2021/12/06 03:24:49;;;;;;;7.23;4.73;;;2.80;99.90;;;;;;5054101;28;20241;-54
2021/12/06 03:27:18;;;;;;;7.17;4.67;;;2.70;99.90;;;;;;5047633;28;20203;-55
2021/12/06 03:29:47;;;;;;;7.83;5.47;;;2.80;99.90;;;;;;5033686;28;20650;-55
2021/12/06 03:32:16;;;;;;;4.73;4.27;;;2.80;99.90;;;;;;5033075;28;20684;-55
2021/12/06 03:34:44;;;;;;;11.20;6.10;;;2.80;99.90;;;;;;5033043;28;20256;-54
2021/12/06 03:37:12;;;;;;;7.83;6.20;;;2.80;99.90;;;;;;5033751;28;20238;-54
2021/12/06 03:39:44;;;;;;;7.80;6.60;;;2.80;99.90;;;;;;5033179;28;20774;-55
2021/12/06 03:42:14;;;;;;;11.43;7.63;;;2.80;99.90;;;;;;5033513;28;20278;-54
2021/12/06 03:44:42;;;;;;;13.07;7.37;;;2.80;99.90;;;;;;5032979;28;20246;-55
2021/12/06 03:47:13;;;;;;;9.47;7.90;;;2.80;99.90;;;;;;5045815;28;20635;-54
2021/12/06 03:49:42;;;;;;;9.47;7.43;;;2.80;99.90;;;;;;5053316;28;20597;-55
2021/12/06 03:52:13;;;;;;;8.33;5.93;;;2.80;99.90;;;;;;5052894;28;20320;-55
2021/12/06 03:54:44;;;;;;;6.03;4.63;;;2.90;99.90;;;;;;5053156;28;20201;-55
2021/12/06 03:57:13;;;;;;;7.40;4.93;;;2.90;99.90;;;;;;5052465;28;20248;-54
2021/12/06 03:59:42;;;;;;;5.47;4.70;;;2.90;99.90;;;;;;5053392;28;20298;-55
2021/12/06 04:02:11;;;;;;;8.67;5.43;;;2.90;99.90;;;;;;5053111;28;20213;-54
2021/12/06 04:04:39;;;;;;;5.20;4.50;;;3.00;99.90;;;;;;5053259;28;20208;-55
2021/12/06 04:07:09;;;;;;;6.60;4.30;;;3.00;99.90;;;;;;5052607;28;20239;-55
2021/12/06 04:09:37;;;;;;;5.80;4.67;;;3.00;99.90;;;;;;5052860;28;20268;-55
2021/12/06 04:12:09;;;;;;;5.97;4.70;;;3.00;99.90;;;;;;5052069;28;20215;-54
2021/12/06 04:14:37;;;;;;;5.10;3.90;;;3.00;99.90;;;;;;5053056;28;20233;-54
2021/12/06 04:17:06;;;;;;;18.77;10.63;;;3.00;99.90;;;;;;5052640;28;20746;-55
2021/12/06 04:19:34;;;;;;;5.93;4.33;;;3.00;99.90;;;;;;5052607;28;20288;-55
2021/12/06 04:22:04;;;;;;;5.90;4.17;;;3.00;99.90;;;;;;5052526;28;20252;-54
2021/12/06 04:24:32;;;;;;;6.00;4.13;;;3.00;99.90;;;;;;5052431;28;20237;-55
2021/12/06 04:27:05;;;;;;;9.30;7.10;;;3.00;99.90;;;;;;5052634;28;20267;-54
2021/12/06 04:29:35;;;;;;;17.60;11.60;;;3.00;99.90;;;;;;5052390;28;20284;-53
2021/12/06 04:32:04;;;;;;;7.50;6.40;;;3.00;99.90;;;;;;5052608;28;20243;-53
2021/12/06 04:34:32;;;;;;;8.23;5.43;;;3.00;99.90;;;;;;5052222;28;20257;-55
2021/12/06 04:37:00;;;;;;;6.80;4.70;;;2.90;99.90;;;;;;5052191;28;20745;-54
2021/12/06 04:39:28;;;;;;;6.40;5.13;;;3.00;99.90;;;;;;5053974;28;20233;-55
2021/12/06 04:41:56;;;;;;;6.60;5.10;;;3.00;99.90;;;;;;5051967;28;20253;-54
2021/12/06 04:44:24;;;;;;;4.93;4.30;;;3.10;99.90;;;;;;5052095;28;20718;-55
2021/12/06 04:46:54;;;;;;;6.60;4.80;;;3.10;99.90;;;;;;5050811;28;20237;-56
2021/12/06 04:49:25;;;;;;;5.43;4.40;;;3.10;99.90;;;;;;5051680;28;20246;-53
2021/12/06 04:51:55;;;;;;;5.10;4.47;;;3.10;99.90;;;;;;5051523;28;20681;-54
2021/12/06 04:54:28;;;;;;;5.67;4.40;;;3.10;99.90;;;;;;5052483;28;20204;-55
2021/12/06 04:56:59;;;;;;;19.57;11.93;;;3.10;99.90;;;;;;5051799;28;20260;-54
2021/12/06 04:59:31;;;;;;;20.57;13.77;;;3.10;99.90;;;;;;5052013;28;20305;-55
2021/12/06 05:02:04;;;;;;;12.37;7.80;;;3.00;99.90;;;;;;5051972;28;20237;-55
2021/12/06 05:04:35;;;;;;;11.23;8.07;;;3.00;99.90;;;;;;5051954;28;20212;-54
2021/12/06 05:07:09;;;;;;;12.70;9.60;;;3.00;99.90;;;;;;5051511;28;20255;-55
2021/12/06 05:09:40;;;;;;;9.63;6.57;;;3.00;99.90;;;;;;5051505;28;20261;-55
2021/12/06 05:12:11;;;;;;;13.37;10.70;;;3.00;99.90;;;;;;5051256;28;20691;-54
2021/12/06 05:14:40;;;;;;;20.20;13.47;;;3.10;99.90;;;;;;5051647;28;20282;-54
2021/12/06 05:17:09;;;;;;;21.13;14.80;;;3.10;99.90;;;;;;5051755;28;20240;-54
2021/12/06 05:19:38;;;;;;;16.97;12.40;;;3.10;99.90;;;;;;5051194;28;20716;-56
2021/12/06 05:22:07;;;;;;;12.20;9.00;;;3.10;99.90;;;;;;5051393;28;20233;-55
2021/12/06 05:24:36;;;;;;;12.50;9.90;;;3.10;99.90;;;;;;5051338;28;20292;-54
2021/12/06 05:27:05;;;;;;;11.03;8.53;;;3.10;99.90;;;;;;5050692;28;20248;-55
2021/12/06 05:29:35;;;;;;;9.67;6.80;;;3.10;99.90;;;;;;5051767;28;20235;-54
2021/12/06 05:32:04;;;;;;;8.43;6.83;;;3.10;99.90;;;;;;5054954;28;20238;-55
2021/12/06 05:34:38;;;;;;;9.43;7.07;;;3.10;99.90;;;;;;5065555;28;20208;-53
2021/12/06 05:37:12;;;;;;;7.83;6.73;;;3.10;99.90;;;;;;5055584;28;20651;-54
2021/12/06 05:39:40;;;;;;;10.70;8.87;;;3.10;99.90;;;;;;5051101;28;20266;-54
2021/12/06 05:42:13;;;;;;;21.33;15.77;;;3.10;99.90;;;;;;5050875;28;20224;-55
2021/12/06 05:44:42;;;;;;;13.37;10.00;;;3.10;99.90;;;;;;5051275;28;20253;-54
2021/12/06 05:47:11;;;;;;;11.70;8.80;;;3.10;99.90;;;;;;5051146;28;20252;-55
2021/12/06 05:49:40;;;;;;;11.03;8.60;;;3.10;99.90;;;;;;5050830;28;20256;-55
2021/12/06 05:52:08;;;;;;;9.20;7.30;;;3.10;99.90;;;;;;5051281;28;20240;-54
2021/12/06 05:54:37;;;;;;;14.17;12.17;;;3.10;99.90;;;;;;5051096;28;20236;-54
2021/12/06 05:57:07;;;;;;;12.10;8.97;;;3.10;99.90;;;;;;5050743;28;20247;-56
2021/12/06 05:59:36;;;;;;;9.00;7.90;;;3.10;99.90;;;;;;5050733;28;20677;-55
2021/12/06 06:02:06;;;;;;;9.53;7.90;;;3.10;99.90;;;;;;5051304;28;20562;-56
2021/12/06 06:04:35;;;;;;;13.97;10.90;;;3.10;99.90;;;;;;5050725;28;20216;-55
2021/12/06 06:07:05;;;;;;;11.43;7.67;;;3.10;99.90;;;;;;5050689;28;20674;-55
2021/12/06 06:09:33;;;;;;;9.80;8.57;;;3.10;99.90;;;;;;5051327;28;20245;-54
2021/12/06 06:12:03;;;;;;;10.13;8.07;;;3.10;99.90;;;;;;5050758;28;20653;-55
2021/12/06 06:14:32;;;;;;;10.80;8.70;;;3.10;99.90;;;;;;5050783;28;20205;-56
2021/12/06 06:17:08;;;;;;;11.97;8.80;;;3.10;99.90;;;;;;5050609;28;20638;-54
2021/12/06 06:19:38;;;;;;;8.80;7.80;;;3.10;99.90;;;;;;5051199;28;20237;-54
2021/12/06 06:22:07;;;;;;;11.40;8.60;;;3.10;99.90;;;;;;5050415;28;20233;-55
2021/12/06 06:24:35;;;;;;;9.53;8.10;;;3.10;99.90;;;;;;5050848;28;20731;-55
2021/12/06 06:27:04;;;;;;;10.13;7.37;;;3.10;99.90;;;;;;5050431;28;20256;-54
2021/12/06 06:29:32;;;;;;;10.17;7.57;;;3.20;99.90;;;;;;5050585;28;20682;-55
2021/12/06 06:32:00;;;;;;;8.93;7.73;;;3.20;99.90;;;;;;5050812;28;20245;-56
2021/12/06 06:34:29;;;;;;;9.63;7.40;;;3.20;99.90;;;;;;5050689;28;20257;-55
2021/12/06 06:36:57;;;;;;;9.57;7.73;;;3.20;99.90;;;;;;5050285;28;20638;-55
2021/12/06 06:39:27;;;;;;;7.60;6.67;;;3.10;99.90;;;;;;5050680;28;20237;-54
2021/12/06 06:41:55;;;;;;;10.70;7.73;;;3.10;99.90;;;;;;5050481;28;20246;-54
2021/12/06 06:44:23;;;;;;;11.53;8.70;;;3.20;99.90;;;;;;5050789;28;20603;-54
2021/12/06 06:46:52;;;;;;;10.00;7.33;;;3.10;99.90;;;;;;5050798;28;20633;-55
2021/12/06 06:49:21;;;;;;;10.63;7.60;;;3.10;99.90;;;;;;5050294;28;20671;-55
2021/12/06 06:51:49;;;;;;;12.47;8.63;;;3.10;99.90;;;;;;5050116;28;20247;-55
2021/12/06 06:54:17;;;;;;;10.67;7.30;;;3.10;99.90;;;;;;5050467;28;20288;-55
2021/12/06 06:56:46;;;;;;;7.90;7.10;;;3.10;99.90;;;;;;5050432;28;20244;-55
2021/12/06 06:59:14;;;;;;;10.90;7.13;;;3.10;99.90;;;;;;5050218;28;20709;-55
2021/12/06 07:01:45;;;;;;;8.27;7.20;;;3.10;99.90;;;;;;5050318;28;20823;-54
2021/12/06 07:04:14;;;;;;;10.87;8.07;;;3.10;99.90;;;;;;5050166;28;20209;-54
2021/12/06 07:06:42;;;;;;;9.93;8.30;;;3.10;99.90;;;;;;5050210;28;20293;-54
2021/12/06 07:09:11;;;;;;;9.30;8.30;;;3.00;99.90;;;;;;5051261;28;20208;-56
2021/12/06 07:11:41;;;;;;;9.80;8.13;;;3.00;99.90;;;;;;5053691;28;20260;-54
2021/12/06 07:14:10;;;;;;;9.40;7.50;;;3.00;99.90;;;;;;5054183;28;20217;-55
2021/12/06 07:16:38;;;;;;;21.00;15.90;;;3.00;99.90;;;;;;5053728;28;20619;-55
2021/12/06 07:19:07;;;;;;;18.37;13.17;;;3.00;99.90;;;;;;5053934;28;20210;-54
2021/12/06 07:21:55;;;;;;;16.37;11.33;;;3.00;99.90;;;;;;5053432;28;20234;-55
2021/12/06 07:24:23;;;;;;;14.87;11.87;;;3.00;99.90;;;;;;5053866;28;20232;-55
2021/12/06 07:26:51;;;;;;;13.87;11.47;;;3.00;99.90;;;;;;5053340;28;20235;-54
2021/12/06 07:29:20;;;;;;;14.20;10.47;;;3.00;99.90;;;;;;5053500;28;20288;-54
2021/12/06 07:31:48;;;;;;;13.90;10.60;;;3.00;99.90;;;;;;5053443;28;20241;-55
2021/12/06 07:34:17;;;;;;;9.77;7.93;;;3.00;99.90;;;;;;5053849;28;20236;-54
2021/12/06 07:36:45;;;;;;;7.57;5.90;;;3.00;99.90;;;;;;5053299;28;20247;-54
2021/12/06 07:39:13;;;;;;;7.57;6.77;;;3.00;99.90;;;;;;5053765;28;20245;-55
2021/12/06 07:41:41;;;;;;;9.43;7.30;;;3.00;99.90;;;;;;5053416;28;20260;-55
2021/12/06 07:44:09;;;;;;;10.17;8.10;;;3.00;99.90;;;;;;5053530;28;20273;-54
2021/12/06 07:46:38;;;;;;;10.43;8.60;;;2.90;99.90;;;;;;5053640;28;20240;-53
2021/12/06 07:49:07;;;;;;;12.47;8.73;;;3.00;99.90;;;;;;5053205;28;20299;-54
2021/12/06 07:51:35;;;;;;;13.37;8.73;;;3.00;99.90;;;;;;5052950;28;20718;-54
2021/12/06 07:54:03;;;;;;;10.63;9.00;;;2.90;99.90;;;;;;5052888;28;20246;-55
2021/12/06 07:56:31;;;;;;;12.33;8.50;;;2.90;99.90;;;;;;5053168;28;20723;-56
2021/12/06 07:58:59;;;;;;;11.03;6.87;;;2.90;99.90;;;;;;5053053;28;20290;-55
2021/12/06 08:01:27;;;;;;;6.27;5.63;;;2.80;99.90;;;;;;5053086;28;20256;-55
2021/12/06 08:03:58;;;;;;;7.63;5.20;;;2.70;99.90;;;;;;5052924;28;20227;-56
2021/12/06 08:06:26;;;;;;;10.00;9.00;;;2.70;99.90;;;;;;5052415;28;20240;-54
2021/12/06 08:08:55;;;;;;;6.03;5.43;;;2.70;99.90;;;;;;5052993;28;20674;-55
2021/12/06 08:11:25;;;;;;;5.83;4.73;;;2.70;99.90;;;;;;5045972;28;20678;-56
2021/12/06 08:13:55;;;;;;;5.67;5.17;;;2.60;99.90;;;;;;5042721;28;20237;-55
2021/12/06 08:16:25;;;;;;;6.83;6.13;;;2.60;99.90;;;;;;5052760;28;20231;-54
2021/12/06 08:18:53;;;;;;;6.10;5.30;;;2.60;99.90;;;;;;5052260;28;20572;-56
2021/12/06 08:21:24;;;;;;;4.97;4.50;;;2.50;99.90;;;;;;5051567;28;20268;-55
2021/12/06 08:23:54;;;;;;;5.27;4.37;;;2.60;99.90;;;;;;5052649;28;20209;-54
2021/12/06 08:26:24;;;;;;;6.47;3.90;;;2.50;99.90;;;;;;5052567;28;20252;-56
2021/12/06 08:28:54;;;;;;;4.10;3.53;;;2.40;99.90;;;;;;5052315;28;20233;-55
2021/12/06 08:31:23;;;;;;;3.80;3.20;;;2.50;99.90;;;;;;5051860;28;20224;-55
2021/12/06 08:33:53;;;;;;;5.33;3.73;;;2.50;99.90;;;;;;5052327;28;20209;-55
2021/12/06 08:36:25;;;;;;;3.53;3.23;;;2.50;99.90;;;;;;5052326;28;20251;-53
2021/12/06 08:38:53;;;;;;;5.00;3.57;;;2.50;99.90;;;;;;5052532;28;20206;-55
2021/12/06 08:41:24;;;;;;;5.00;3.47;;;2.60;99.90;;;;;;5052074;28;20689;-55
2021/12/06 08:43:54;;;;;;;2.70;2.40;;;2.60;99.90;;;;;;5051530;28;20236;-54
2021/12/06 08:46:25;;;;;;;3.90;3.10;;;2.60;99.90;;;;;;5052057;28;20241;-54
2021/12/06 08:48:55;;;;;;;4.30;3.90;;;2.60;99.90;;;;;;5050702;28;20962;-55
2021/12/06 08:51:28;;;;;;;4.23;3.07;;;2.70;99.90;;;;;;5049804;28;20255;-54
2021/12/06 08:53:58;;;;;;;4.20;3.50;;;2.70;99.90;;;;;;5036806;28;20287;-54
2021/12/06 08:56:27;;;;;;;3.80;2.97;;;2.70;99.90;;;;;;5051907;28;20252;-54
2021/12/06 08:58:57;;;;;;;3.87;2.33;;;2.70;99.90;;;;;;5051519;28;20629;-55
2021/12/06 09:01:25;;;;;;;2.90;2.00;;;2.60;99.90;;;;;;5040696;28;20324;-55
2021/12/06 09:04:13;;;;;;;3.07;2.10;;;2.60;99.90;;;;;;5048582;28;20692;-54
2021/12/06 09:06:46;;;;;;;3.63;1.90;;;2.60;99.90;;;;;;5051885;28;20202;-54
2021/12/06 09:09:15;;;;;;;4.20;2.37;;;2.60;99.90;;;;;;5048252;28;20257;-54
2021/12/06 09:11:45;;;;;;;3.73;3.20;;;2.60;99.90;;;;;;5031197;28;20265;-54
2021/12/06 09:14:13;;;;;;;3.10;2.70;;;2.60;99.90;;;;;;5031408;28;20433;-55
2021/12/06 09:16:42;;;;;;;2.60;2.40;;;2.70;99.90;;;;;;5032678;28;20206;-55
2021/12/06 09:19:11;;;;;;;2.83;2.10;;;2.70;99.90;;;;;;5041780;28;21041;-55
2021/12/06 09:21:40;;;;;;;2.57;2.30;;;2.70;99.90;;;;;;5051323;28;20260;-54
2021/12/06 09:24:13;;;;;;;3.40;2.50;;;2.70;99.90;;;;;;5051182;28;20730;-53
2021/12/06 09:26:41;;;;;;;3.40;2.80;;;2.70;99.90;;;;;;5050811;28;20225;-54
2021/12/06 09:29:09;;;;;;;3.33;2.95;;;2.80;99.90;;;;;;5050465;28;20467;-55
2021/12/06 09:31:38;;;;;;;4.07;3.00;;;2.90;99.90;;;;;;5050284;28;20464;-55
2021/12/06 09:34:06;;;;;;;5.43;3.40;;;2.90;99.90;;;;;;5050727;28;20256;-55
2021/12/06 09:36:35;;;;;;;4.20;3.70;;;2.90;99.90;;;;;;5050847;28;20228;-55
2021/12/06 09:39:05;;;;;;;4.60;3.80;;;3.00;99.90;;;;;;5051035;28;20239;-54
2021/12/06 09:41:35;;;;;;;8.07;5.33;;;3.00;99.90;;;;;;5051312;28;20221;-54
2021/12/06 09:44:06;;;;;;;5.00;4.00;;;3.00;99.90;;;;;;5050713;28;20217;-54
2021/12/06 09:46:36;;;;;;;6.20;4.80;;;3.00;99.90;;;;;;5051057;28;20251;-54
2021/12/06 09:49:07;;;;;;;4.70;3.90;;;3.00;99.90;;;;;;5051128;28;20207;-55
2021/12/06 09:51:37;;;;;;;4.07;3.43;;;3.00;99.90;;;;;;5050654;28;20229;-53
2021/12/06 09:54:07;;;;;;;5.00;4.23;;;3.10;99.90;;;;;;5050779;28;20672;-55
2021/12/06 09:56:41;;;;;;;4.20;3.80;;;3.10;99.90;;;;;;5048630;28;20659;-55
2021/12/06 09:59:12;;;;;;;6.40;4.50;;;3.10;99.90;;;;;;5050312;28;20205;-54
2021/12/06 10:01:44;;;;;;;5.10;4.13;;;3.20;99.90;;;;;;5049785;28;20767;-55
2021/12/06 10:04:15;;;;;;;4.37;3.97;;;3.20;99.90;;;;;;5050660;28;20212;-55
2021/12/06 10:06:44;;;;;;;6.23;5.50;;;3.20;99.90;;;;;;5050516;28;20248;-55
2021/12/06 10:09:13;;;;;;;6.73;5.53;;;3.20;99.90;;;;;;5050510;28;20244;-54
2021/12/06 10:11:43;;;;;;;8.40;6.37;;;3.30;99.90;;;;;;5050319;28;20267;-55
2021/12/06 10:14:11;;;;;;;13.50;7.53;;;3.30;99.90;;;;;;5050867;28;20237;-56
2021/12/06 10:16:40;;;;;;;9.30;7.23;;;3.30;99.90;;;;;;5051086;28;20245;-55
2021/12/06 10:19:08;;;;;;;10.83;8.07;;;3.40;99.90;;;;;;5050914;28;20234;-55
2021/12/06 10:21:38;;;;;;;10.33;8.13;;;3.40;99.90;;;;;;5050828;28;20283;-54
2021/12/06 10:24:11;;;;;;;10.97;8.40;;;3.40;99.90;;;;;;5050662;28;20719;-54
2021/12/06 10:26:39;;;;;;;11.73;9.10;;;3.40;99.90;;;;;;5050360;28;20246;-55
2021/12/06 10:29:11;;;;;;;9.60;8.50;;;3.40;99.90;;;;;;5050761;28;20252;-55
2021/12/06 10:31:42;;;;;;;13.43;9.40;;;3.50;99.90;;;;;;5050704;28;20248;-55
2021/12/06 10:34:14;;;;;;;13.40;10.07;;;3.50;99.90;;;;;;5050651;28;20206;-56
2021/12/06 10:36:42;;;;;;;13.30;10.07;;;3.50;99.90;;;;;;5050337;28;20263;-54
2021/12/06 10:39:10;;;;;;;13.47;10.07;;;3.50;99.90;;;;;;5050881;28;20252;-54
2021/12/06 10:41:39;;;;;;;15.30;10.83;;;3.60;99.90;;;;;;5049363;28;20225;-55
2021/12/06 10:44:11;;;;;;;12.53;9.53;;;3.60;99.90;;;;;;5051011;28;20264;-55
2021/12/06 10:46:48;;;;;;;11.80;9.07;;;3.60;99.90;;;;;;5046656;28;20244;-56
2021/12/06 10:49:20;;;;;;;13.73;9.50;;;3.60;99.90;;;;;;5050515;28;20202;-53
2021/12/06 10:51:49;;;;;;;12.70;9.73;;;3.70;99.90;;;;;;5039890;28;20229;-55
2021/12/06 10:54:27;;;;;;;13.50;10.00;;;3.70;99.90;;;;;;5054305;28;20205;-54
2021/12/06 10:56:59;;;;;;;12.87;10.23;;;3.80;99.90;;;;;;5053590;28;20248;-55
2021/12/06 10:59:31;;;;;;;11.10;9.30;;;3.80;99.90;;;;;;5054157;28;20259;-53
2021/12/06 11:02:05;;;;;;;11.73;9.83;;;3.80;99.90;;;;;;5053870;28;20222;-54
2021/12/06 11:04:34;;;;;;;11.77;10.00;;;3.90;99.90;;;;;;5053359;28;20432;-54
2021/12/06 11:07:06;;;;;;;12.40;9.53;;;4.00;99.90;;;;;;5053634;28;20234;-54
2021/12/06 11:09:36;;;;;;;10.23;8.73;;;4.00;99.90;;;;;;5054669;28;20225;-54
2021/12/06 11:12:07;;;;;;;11.20;8.77;;;4.00;99.90;;;;;;5053617;28;20287;-56
2021/12/06 11:14:39;;;;;;;10.33;8.93;;;4.10;99.90;;;;;;5054308;28;20187;-55
2021/12/06 11:17:10;;;;;;;10.53;8.37;;;4.10;99.90;;;;;;5053931;28;20639;-55
2021/12/06 11:19:38;;;;;;;12.63;9.37;;;4.20;99.90;;;;;;5053990;28;20240;-54
2021/12/06 11:22:09;;;;;;;13.57;11.07;;;4.20;99.90;;;;;;5048957;28;20250;-54
2021/12/06 11:24:39;;;;;;;13.83;9.63;;;4.30;99.90;;;;;;5053591;28;20663;-54
2021/12/06 11:27:10;;;;;;;15.03;11.07;;;4.30;99.90;;;;;;5053241;28;20212;-55
2021/12/06 11:29:42;;;;;;;16.10;11.93;;;4.30;99.90;;;;;;5053331;28;20271;-55
2021/12/06 11:32:12;;;;;;;19.00;14.77;;;4.30;99.90;;;;;;5053634;28;20206;-55
2021/12/06 11:34:43;;;;;;;14.57;11.40;;;4.30;99.90;;;;;;5052973;28;20248;-54
2021/12/06 11:37:13;;;;;;;17.17;11.53;;;4.30;99.90;;;;;;5053397;28;20640;-54
2021/12/06 11:39:41;;;;;;;13.57;10.97;;;4.30;99.90;;;;;;5053675;28;20269;-54
2021/12/06 11:42:14;;;;;;;18.17;13.07;;;4.30;99.90;;;;;;5053546;28;20195;-57
2021/12/06 11:44:43;;;;;;;16.93;12.73;;;4.30;99.90;;;;;;5054648;28;20268;-55
2021/12/06 11:47:13;;;;;;;20.67;13.90;;;4.40;99.90;;;;;;5054486;28;20684;-55
2021/12/06 11:49:45;;;;;;;17.13;13.70;;;4.40;99.90;;;;;;5054931;28;20259;-54
2021/12/06 11:52:17;;;;;;;16.27;11.37;;;4.50;99.90;;;;;;5054069;28;20235;-54
2021/12/06 11:54:50;;;;;;;17.53;12.80;;;4.50;99.90;;;;;;5054503;28;20207;-52
2021/12/06 11:57:27;;;;;;;18.23;12.87;;;4.60;99.90;;;;;;5053880;28;20244;-55
2021/12/06 12:00:06;;;;;;;17.33;12.53;;;4.60;99.90;;;;;;5053340;28;20274;-55
2021/12/06 12:02:43;;;;;;;15.03;11.50;;;4.60;99.90;;;;;;5052808;28;20728;-55
2021/12/06 12:05:22;;;;;;;14.87;12.13;;;4.60;99.90;;;;;;5053048;28;20254;-55
2021/12/06 12:07:59;;;;;;;15.00;11.93;;;4.70;99.90;;;;;;5052384;28;20298;-55
2021/12/06 12:10:30;;;;;;;17.97;14.10;;;4.70;99.90;;;;;;5053148;28;20264;-55
2021/12/06 12:12:58;;;;;;;15.63;12.57;;;4.80;99.90;;;;;;5052367;28;20206;-55
2021/12/06 12:15:27;;;;;;;16.53;12.53;;;4.80;99.90;;;;;;5053122;28;20269;-54
2021/12/06 12:17:56;;;;;;;15.60;11.23;;;4.90;99.90;;;;;;5052577;28;20244;-54
2021/12/06 12:20:44;;;;;;;13.53;10.87;;;4.90;99.90;;;;;;5052585;28;20230;-54
2021/12/06 12:23:12;;;;;;;14.80;11.03;;;5.00;99.90;;;;;;5052193;28;20251;-55
2021/12/06 12:25:49;;;;;;;13.97;11.00;;;4.90;99.90;;;;;;5052857;28;20252;-55
2021/12/06 12:28:21;;;;;;;14.70;11.37;;;4.90;99.90;;;;;;5052207;28;20292;-55
2021/12/06 12:30:53;;;;;;;18.13;12.27;;;4.90;99.90;;;;;;5052194;28;20598;-55
2021/12/06 12:33:22;;;;;;;16.77;12.93;;;4.90;99.90;;;;;;5052169;28;20208;-56
2021/12/06 12:35:53;;;;;;;19.23;14.23;;;4.80;99.90;;;;;;5052305;28;20300;-53
2021/12/06 12:38:24;;;;;;;21.07;13.30;;;4.80;99.90;;;;;;5052346;28;20262;-55
2021/12/06 12:40:55;;;;;;;17.10;12.03;;;4.80;99.90;;;;;;5052232;28;20225;-54
2021/12/06 12:43:26;;;;;;;14.47;11.87;;;4.80;99.90;;;;;;5051527;28;20690;-54
2021/12/06 12:45:57;;;;;;;17.73;12.83;;;4.70;99.90;;;;;;5052014;28;20232;-55
2021/12/06 12:48:28;;;;;;;20.50;14.23;;;4.70;99.90;;;;;;5059152;28;20251;-55
2021/12/06 12:51:09;;;;;;;18.73;13.23;;;4.70;99.90;;;;;;5071392;28;20232;-55
2021/12/06 12:53:53;;;;;;;15.03;11.07;;;4.70;99.90;;;;;;5056576;28;20231;-55
2021/12/06 12:56:23;;;;;;;16.47;10.47;;;4.60;99.90;;;;;;5051874;28;20234;-55
2021/12/06 12:58:52;;;;;;;13.43;10.47;;;4.60;99.90;;;;;;5033261;28;20306;-55
2021/12/06 13:01:24;;;;;;;17.97;12.53;;;4.60;99.90;;;;;;5031978;28;20262;-55
2021/12/06 13:03:55;;;;;;;16.80;11.90;;;4.60;99.90;;;;;;5031562;28;20310;-54
2021/12/06 13:06:26;;;;;;;18.27;11.00;;;4.60;99.90;;;;;;5031522;28;20269;-54
2021/12/06 13:08:56;;;;;;;10.53;8.17;;;4.60;99.90;;;;;;5032428;28;20289;-55
2021/12/06 13:11:28;;;;;;;14.20;9.00;;;4.60;99.90;;;;;;5032064;28;20266;-56